Time;durP1;ratioP1;P1;durP2;ratioP2;P2;SDS_P1;SDS_P2;PMS_P1;PMS_P2;Temp;Humidity;BMP_temperature;BMP_pressure;BME280_temperature;BME280_humidity;BME280_pressure;Samples;Min_cycle;Max_cycle;Signal;HPM_P1;HPM_P2
2023/11/27 00:00:34;;;;;;;21.00;14.20;;;;;;;;;;5012259;28;20408;-84
2023/11/27 00:03:00;;;;;;;20.80;13.30;;;;;;;;;;4995861;28;20531;-78
2023/11/27 00:05:26;;;;;;;28.07;14.10;;;;;;;;;;4989016;28;20412;-84
2023/11/27 00:07:52;;;;;;;26.87;14.87;;;;;;;;;;5012490;28;20428;-84
2023/11/27 00:10:18;;;;;;;22.83;13.77;;;;;;;;;;5013292;28;20474;-84
2023/11/27 00:12:43;;;;;;;22.67;14.43;;;;;;;;;;5016114;28;20455;-85
2023/11/27 00:15:09;;;;;;;19.53;11.60;;;;;;;;;;5015708;28;20441;-83
2023/11/27 00:17:35;;;;;;;21.77;13.40;;;;;;;;;;5016084;28;20521;-83
2023/11/27 00:20:03;;;;;;;22.07;13.27;;;;;;;;;;5015944;28;20502;-85
2023/11/27 00:22:29;;;;;;;20.30;12.97;;;;;;;;;;5015847;28;20860;-85
2023/11/27 00:24:55;;;;;;;21.00;14.50;;;;;;;;;;5015761;28;20424;-81
2023/11/27 00:27:22;;;;;;;25.57;14.33;;;;;;;;;;5015805;28;20406;-82
2023/11/27 00:29:48;;;;;;;20.80;12.33;;;;;;;;;;5014100;28;20418;-81
2023/11/27 00:32:13;;;;;;;23.67;14.27;;;;;;;;;;5014258;28;20522;-82
2023/11/27 00:34:39;;;;;;;20.13;12.50;;;;;;;;;;5015626;28;20449;-82
2023/11/27 00:37:07;;;;;;;20.07;12.03;;;;;;;;;;5015607;28;20816;-83
2023/11/27 00:39:32;;;;;;;21.00;12.30;;;;;;;;;;5015600;28;20448;-82
2023/11/27 00:41:58;;;;;;;21.50;11.70;;;;;;;;;;5015438;28;20568;-82
2023/11/27 00:44:24;;;;;;;26.17;14.33;;;;;;;;;;5013792;28;20994;-82
2023/11/27 00:46:50;;;;;;;19.33;12.80;;;;;;;;;;5015267;28;20429;-82
2023/11/27 00:49:18;;;;;;;23.60;14.43;;;;;;;;;;5014915;28;20422;-82
2023/11/27 00:51:44;;;;;;;22.40;14.07;;;;;;;;;;5015416;28;20483;-82
2023/11/27 00:54:10;;;;;;;20.33;14.57;;;;;;;;;;5014987;28;21228;-81
2023/11/27 00:56:36;;;;;;;19.77;13.07;;;;;;;;;;5015158;28;20425;-81
2023/11/27 00:59:02;;;;;;;25.60;13.80;;;;;;;;;;5014216;28;20426;-80
2023/11/27 01:01:28;;;;;;;23.97;13.90;;;;;;;;;;5015014;28;20934;-82
2023/11/27 01:03:54;;;;;;;22.30;13.70;;;;;;;;;;5015025;28;20488;-81
2023/11/27 01:06:20;;;;;;;20.60;13.10;;;;;;;;;;5015065;28;20426;-81
2023/11/27 01:08:45;;;;;;;20.70;14.17;;;;;;;;;;5014954;28;20431;-82
2023/11/27 01:11:11;;;;;;;20.00;13.47;;;;;;;;;;5014990;28;20794;-81
2023/11/27 01:13:37;;;;;;;23.90;13.67;;;;;;;;;;5014254;28;20498;-81
2023/11/27 01:16:03;;;;;;;18.23;12.83;;;;;;;;;;5014829;28;20417;-81
2023/11/27 01:18:29;;;;;;;19.00;13.50;;;;;;;;;;5014880;28;20411;-82
2023/11/27 01:20:56;;;;;;;20.60;12.50;;;;;;;;;;5013066;28;20855;-81
2023/11/27 01:23:22;;;;;;;21.13;12.60;;;;;;;;;;5014598;28;20887;-82
2023/11/27 01:25:48;;;;;;;22.67;13.20;;;;;;;;;;5014792;28;20406;-81
2023/11/27 01:28:14;;;;;;;19.10;12.33;;;;;;;;;;5014234;28;20533;-82
2023/11/27 01:30:40;;;;;;;23.37;12.47;;;;;;;;;;5014243;28;20832;-81
2023/11/27 01:33:06;;;;;;;22.83;12.50;;;;;;;;;;5014567;28;20429;-82
2023/11/27 01:35:32;;;;;;;20.77;12.07;;;;;;;;;;5014512;28;20592;-81
2023/11/27 01:37:58;;;;;;;25.73;14.53;;;;;;;;;;5014431;28;20434;-83
2023/11/27 01:40:24;;;;;;;23.33;13.90;;;;;;;;;;5014414;28;20445;-83
2023/11/27 01:42:50;;;;;;;21.73;13.53;;;;;;;;;;5014066;28;20569;-83
2023/11/27 01:45:16;;;;;;;22.03;12.47;;;;;;;;;;5014094;28;20421;-82
2023/11/27 01:47:43;;;;;;;20.87;12.40;;;;;;;;;;5014278;28;20423;-82
2023/11/27 01:50:10;;;;;;;20.73;12.97;;;;;;;;;;5014246;28;20411;-82
2023/11/27 01:52:39;;;;;;;23.27;13.87;;;;;;;;;;5014140;28;20420;-82
2023/11/27 01:55:05;;;;;;;20.37;13.00;;;;;;;;;;5014048;28;20419;-83
2023/11/27 01:57:31;;;;;;;18.60;12.73;;;;;;;;;;5014075;28;20492;-82
2023/11/27 01:59:58;;;;;;;22.10;13.20;;;;;;;;;;5013757;28;20406;-82
2023/11/27 02:02:24;;;;;;;25.57;13.80;;;;;;;;;;5012663;28;20481;-82
2023/11/27 02:04:51;;;;;;;20.33;13.03;;;;;;;;;;5013968;28;20523;-82
2023/11/27 02:07:16;;;;;;;19.37;13.67;;;;;;;;;;5015523;28;20435;-82
2023/11/27 02:09:43;;;;;;;24.00;13.50;;;;;;;;;;5013261;28;20785;-82
2023/11/27 02:12:09;;;;;;;19.67;12.70;;;;;;;;;;5009979;28;20427;-81
2023/11/27 02:14:35;;;;;;;19.93;13.20;;;;;;;;;;5009745;28;20430;-82
2023/11/27 02:17:01;;;;;;;19.73;11.07;;;;;;;;;;4996729;28;20421;-81
2023/11/27 02:19:27;;;;;;;19.97;13.27;;;;;;;;;;5012325;28;20464;-83
2023/11/27 02:21:53;;;;;;;18.50;11.37;;;;;;;;;;5013956;28;20793;-82
2023/11/27 02:24:19;;;;;;;20.07;12.70;;;;;;;;;;5004630;28;20428;-82
2023/11/27 02:26:45;;;;;;;18.43;11.17;;;;;;;;;;5020211;28;20822;-81
2023/11/27 02:29:10;;;;;;;19.40;11.37;;;;;;;;;;5033270;28;20421;-82
2023/11/27 02:31:37;;;;;;;19.30;12.30;;;;;;;;;;5033430;28;20472;-82
2023/11/27 02:34:03;;;;;;;19.60;11.73;;;;;;;;;;5032925;28;20483;-83
2023/11/27 02:36:31;;;;;;;20.23;12.77;;;;;;;;;;5032164;28;20420;-83
2023/11/27 02:38:57;;;;;;;19.07;11.77;;;;;;;;;;5033413;28;20502;-81
2023/11/27 02:41:24;;;;;;;18.37;11.83;;;;;;;;;;5032112;28;20881;-83
2023/11/27 02:43:50;;;;;;;17.90;11.70;;;;;;;;;;5031697;28;20570;-84
2023/11/27 02:46:16;;;;;;;16.93;10.60;;;;;;;;;;5033375;28;20495;-82
2023/11/27 02:48:42;;;;;;;18.83;11.67;;;;;;;;;;5033274;28;20416;-82
2023/11/27 02:51:08;;;;;;;18.50;10.77;;;;;;;;;;5033316;28;20405;-83
2023/11/27 02:53:34;;;;;;;19.47;11.27;;;;;;;;;;5033164;28;20415;-82
2023/11/27 02:56:00;;;;;;;22.40;11.97;;;;;;;;;;5033212;28;20429;-84
2023/11/27 02:58:26;;;;;;;15.20;9.70;;;;;;;;;;5032922;28;20411;-80
2023/11/27 03:00:52;;;;;;;15.37;10.37;;;;;;;;;;5033187;28;20471;-84
2023/11/27 03:03:18;;;;;;;15.90;10.33;;;;;;;;;;5033055;28;20483;-84
2023/11/27 03:05:44;;;;;;;15.67;10.47;;;;;;;;;;5031744;28;20462;-83
2023/11/27 03:08:10;;;;;;;18.60;12.20;;;;;;;;;;5013361;28;20418;-81
2023/11/27 03:10:36;;;;;;;19.50;10.33;;;;;;;;;;5013401;28;20768;-82
2023/11/27 03:13:02;;;;;;;14.60;10.30;;;;;;;;;;5012996;28;20797;-83
2023/11/27 03:15:28;;;;;;;19.20;10.77;;;;;;;;;;5013325;28;20410;-83
2023/11/27 03:17:54;;;;;;;14.00;9.37;;;;;;;;;;5012564;28;20902;-81
2023/11/27 03:20:20;;;;;;;17.73;10.50;;;;;;;;;;5001387;28;20435;-82
2023/11/27 03:22:46;;;;;;;18.97;11.20;;;;;;;;;;5005532;28;20480;-83
2023/11/27 03:25:12;;;;;;;14.40;8.93;;;;;;;;;;4993552;28;20409;-82
2023/11/27 03:27:38;;;;;;;14.50;10.83;;;;;;;;;;5005945;28;20432;-82
2023/11/27 03:30:04;;;;;;;14.67;9.23;;;;;;;;;;5013001;28;20416;-82
2023/11/27 03:32:30;;;;;;;12.90;7.97;;;;;;;;;;5013098;28;20430;-81
2023/11/27 03:34:57;;;;;;;14.20;7.73;;;;;;;;;;5003360;28;20482;-82
2023/11/27 03:37:23;;;;;;;16.63;9.57;;;;;;;;;;4993480;28;20769;-82
2023/11/27 03:39:49;;;;;;;13.63;7.33;;;;;;;;;;4993384;28;20477;-81
2023/11/27 03:42:15;;;;;;;13.90;8.97;;;;;;;;;;4993415;28;20466;-81
2023/11/27 03:44:40;;;;;;;13.80;8.37;;;;;;;;;;4994596;28;20906;-81
2023/11/27 03:47:06;;;;;;;15.20;9.17;;;;;;;;;;4997310;28;20411;-82
2023/11/27 03:49:32;;;;;;;12.57;9.47;;;;;;;;;;4997269;28;20415;-82
2023/11/27 03:52:01;;;;;;;14.10;8.90;;;;;;;;;;4997106;28;20410;-82
2023/11/27 03:54:27;;;;;;;12.13;7.87;;;;;;;;;;5012268;28;20525;-83
2023/11/27 03:56:53;;;;;;;15.53;10.17;;;;;;;;;;4997218;28;20415;-82
2023/11/27 03:59:19;;;;;;;14.53;10.47;;;;;;;;;;4996743;28;20425;-82
2023/11/27 04:01:45;;;;;;;17.40;10.20;;;;;;;;;;4996923;28;20783;-82
2023/11/27 04:04:12;;;;;;;15.77;8.60;;;;;;;;;;4985789;28;21944;-79
2023/11/27 04:06:38;;;;;;;16.27;9.40;;;;;;;;;;5019140;28;20408;-82
2023/11/27 04:09:04;;;;;;;14.37;10.60;;;;;;;;;;5036131;28;20412;-82
2023/11/27 04:11:31;;;;;;;18.47;10.97;;;;;;;;;;5036054;28;20962;-82
2023/11/27 04:13:57;;;;;;;16.87;9.57;;;;;;;;;;5034510;28;20460;-82
2023/11/27 04:16:23;;;;;;;11.30;8.10;;;;;;;;;;5036041;28;20419;-82
2023/11/27 04:18:50;;;;;;;11.80;7.10;;;;;;;;;;5035955;28;20424;-82
2023/11/27 04:21:17;;;;;;;11.43;8.27;;;;;;;;;;5036008;28;20420;-82
2023/11/27 04:23:43;;;;;;;14.60;9.03;;;;;;;;;;5035900;28;20486;-83
2023/11/27 04:26:09;;;;;;;13.50;7.40;;;;;;;;;;5035837;28;20458;-82
2023/11/27 04:28:35;;;;;;;13.30;8.07;;;;;;;;;;5035582;28;20842;-82
2023/11/27 04:31:01;;;;;;;12.33;8.57;;;;;;;;;;5035596;28;20542;-82
2023/11/27 04:33:27;;;;;;;10.90;6.73;;;;;;;;;;5035705;28;20420;-82
2023/11/27 04:35:53;;;;;;;9.13;5.40;;;;;;;;;;5051131;28;20421;-82
2023/11/27 04:38:18;;;;;;;13.00;6.60;;;;;;;;;;5035655;28;20466;-82
2023/11/27 04:40:45;;;;;;;14.90;7.50;;;;;;;;;;5035638;28;20740;-82
2023/11/27 04:43:11;;;;;;;12.80;7.30;;;;;;;;;;5035317;28;20938;-82
2023/11/27 04:45:37;;;;;;;11.80;6.17;;;;;;;;;;5050904;28;20466;-82
2023/11/27 04:48:03;;;;;;;10.73;6.47;;;;;;;;;;5035466;28;20513;-82
2023/11/27 04:50:29;;;;;;;9.90;5.30;;;;;;;;;;5035463;28;20415;-83
2023/11/27 04:52:55;;;;;;;8.67;5.23;;;;;;;;;;5035379;28;20415;-80
2023/11/27 04:55:20;;;;;;;7.60;5.57;;;;;;;;;;5035068;28;20738;-81
2023/11/27 04:57:46;;;;;;;11.10;6.40;;;;;;;;;;5034505;28;20418;-83
2023/11/27 05:00:15;;;;;;;12.10;6.97;;;;;;;;;;5035176;28;20428;-82
2023/11/27 05:02:43;;;;;;;8.50;6.20;;;;;;;;;;5035189;28;20484;-82
2023/11/27 05:05:09;;;;;;;8.43;4.93;;;;;;;;;;5035205;28;20814;-82
2023/11/27 05:07:35;;;;;;;10.43;5.80;;;;;;;;;;5035064;28;20537;-83
2023/11/27 05:10:01;;;;;;;11.00;5.90;;;;;;;;;;5035048;28;20409;-82
2023/11/27 05:12:26;;;;;;;11.77;6.03;;;;;;;;;;5050046;28;20417;-83
2023/11/27 05:14:52;;;;;;;10.67;5.87;;;;;;;;;;5035049;28;20485;-82
2023/11/27 05:17:18;;;;;;;7.97;4.23;;;;;;;;;;5034927;28;20417;-82
2023/11/27 05:19:44;;;;;;;9.30;4.00;;;;;;;;;;5034861;28;20411;-81
2023/11/27 05:22:10;;;;;;;7.50;4.77;;;;;;;;;;5050104;28;20468;-81
2023/11/27 05:24:36;;;;;;;8.93;4.40;;;;;;;;;;5034852;28;20507;-82
2023/11/27 05:27:02;;;;;;;6.37;4.17;;;;;;;;;;5034809;28;20830;-83
2023/11/27 05:29:28;;;;;;;5.80;3.70;;;;;;;;;;5034459;28;20421;-83
2023/11/27 05:31:54;;;;;;;5.27;3.50;;;;;;;;;;5039790;28;20475;-83
2023/11/27 05:34:21;;;;;;;5.63;3.70;;;;;;;;;;4982891;28;20418;-84
2023/11/27 05:36:47;;;;;;;6.13;4.03;;;;;;;;;;5014758;28;20402;-83
2023/11/27 05:39:13;;;;;;;7.77;4.27;;;;;;;;;;5014812;28;20516;-84
2023/11/27 05:41:41;;;;;;;6.50;3.57;;;;;;;;;;5014678;28;20445;-84
2023/11/27 05:44:07;;;;;;;5.40;3.50;;;;;;;;;;5014460;28;20761;-84
2023/11/27 05:46:34;;;;;;;8.87;4.47;;;;;;;;;;5014746;28;20419;-82
2023/11/27 05:49:00;;;;;;;5.87;3.13;;;;;;;;;;5014694;28;20409;-82
2023/11/27 05:51:26;;;;;;;5.30;3.67;;;;;;;;;;5014561;28;20414;-82
2023/11/27 05:53:55;;;;;;;3.97;2.83;;;;;;;;;;5014374;28;20423;-82
2023/11/27 05:56:21;;;;;;;5.70;3.50;;;;;;;;;;5014588;28;20512;-83
2023/11/27 05:58:47;;;;;;;4.67;2.23;;;;;;;;;;5014010;28;20847;-82
2023/11/27 06:01:13;;;;;;;4.53;2.97;;;;;;;;;;5014369;28;20416;-81
2023/11/27 06:03:39;;;;;;;5.70;3.47;;;;;;;;;;5014149;28;21073;-82
2023/11/27 06:06:09;;;;;;;6.07;3.57;;;;;;;;;;5014184;28;20409;-83
2023/11/27 06:08:35;;;;;;;4.33;2.37;;;;;;;;;;5013363;28;20413;-82
2023/11/27 06:11:04;;;;;;;4.17;3.00;;;;;;;;;;5014261;28;20409;-82
2023/11/27 06:13:30;;;;;;;6.63;3.03;;;;;;;;;;5013840;28;20426;-82
2023/11/27 06:15:56;;;;;;;3.90;2.50;;;;;;;;;;5014120;28;20418;-83
2023/11/27 06:18:22;;;;;;;3.57;2.23;;;;;;;;;;5013944;28;20898;-83
2023/11/27 06:20:48;;;;;;;4.20;2.87;;;;;;;;;;5014012;28;20412;-83
2023/11/27 06:23:14;;;;;;;3.73;2.57;;;;;;;;;;5013895;28;20487;-84
2023/11/27 06:25:40;;;;;;;5.80;3.00;;;;;;;;;;5013921;28;20475;-79
2023/11/27 06:28:07;;;;;;;4.90;3.10;;;;;;;;;;5013684;28;20414;-83
2023/11/27 06:30:33;;;;;;;4.40;2.73;;;;;;;;;;5013718;28;20478;-82
2023/11/27 06:32:59;;;;;;;6.00;3.00;;;;;;;;;;5013905;28;20477;-82
2023/11/27 06:35:25;;;;;;;5.20;3.37;;;;;;;;;;5013787;28;20408;-83
2023/11/27 06:37:51;;;;;;;4.13;2.73;;;;;;;;;;5013803;28;20484;-83
2023/11/27 06:40:19;;;;;;;4.20;2.23;;;;;;;;;;5013744;28;20403;-84
2023/11/27 06:42:45;;;;;;;2.90;1.80;;;;;;;;;;5013397;28;20465;-82
2023/11/27 06:45:11;;;;;;;3.80;2.40;;;;;;;;;;5013649;28;20414;-83
2023/11/27 06:47:37;;;;;;;3.60;2.20;;;;;;;;;;5013488;28;20405;-82
2023/11/27 06:50:04;;;;;;;4.80;2.40;;;;;;;;;;5013141;28;20431;-82
2023/11/27 06:52:29;;;;;;;6.67;3.50;;;;;;;;;;5013561;28;20519;-82
2023/11/27 06:54:55;;;;;;;5.13;2.40;;;;;;;;;;5013491;28;20418;-83
2023/11/27 06:57:21;;;;;;;3.20;2.43;;;;;;;;;;5028346;28;20424;-83
2023/11/27 06:59:47;;;;;;;3.00;2.63;;;;;;;;;;5013345;28;20430;-83
2023/11/27 07:02:13;;;;;;;4.40;2.33;;;;;;;;;;5013418;28;20472;-82
2023/11/27 07:04:39;;;;;;;4.00;2.23;;;;;;;;;;5013335;28;20534;-84
2023/11/27 07:07:06;;;;;;;6.80;2.67;;;;;;;;;;5013376;28;20428;-83
2023/11/27 07:09:31;;;;;;;3.30;2.50;;;;;;;;;;5013319;28;20448;-84
2023/11/27 07:11:58;;;;;;;3.30;2.00;;;;;;;;;;5012975;28;20445;-83
2023/11/27 07:14:26;;;;;;;3.57;2.83;;;;;;;;;;4972571;28;20425;-85
2023/11/27 07:16:52;;;;;;;3.63;1.80;;;;;;;;;;5013327;28;20780;-84
2023/11/27 07:19:18;;;;;;;9.70;3.23;;;;;;;;;;5014255;28;20424;-84
2023/11/27 07:21:44;;;;;;;5.50;2.60;;;;;;;;;;5016083;28;20431;-84
2023/11/27 07:24:10;;;;;;;2.70;1.70;;;;;;;;;;5017479;28;20429;-83
2023/11/27 07:26:37;;;;;;;4.53;3.43;;;;;;;;;;5017158;28;20892;-84
2023/11/27 07:29:03;;;;;;;5.97;3.10;;;;;;;;;;5016856;28;20460;-84
2023/11/27 07:31:31;;;;;;;4.27;2.57;;;;;;;;;;5017092;28;20471;-84
2023/11/27 07:33:57;;;;;;;4.17;2.57;;;;;;;;;;5017135;28;20488;-84
2023/11/27 07:36:23;;;;;;;4.60;2.77;;;;;;;;;;5017100;28;20443;-83
2023/11/27 07:38:49;;;;;;;4.40;1.93;;;;;;;;;;5017099;28;20412;-84
2023/11/27 07:41:16;;;;;;;4.67;2.63;;;;;;;;;;5017067;28;20411;-85
2023/11/27 07:43:41;;;;;;;4.57;2.00;;;;;;;;;;5015254;28;21047;-84
2023/11/27 07:46:11;;;;;;;4.63;2.03;;;;;;;;;;5017045;28;20501;-84
2023/11/27 07:48:41;;;;;;;3.43;2.10;;;;;;;;;;5016839;28;20905;-85
2023/11/27 07:51:08;;;;;;;2.87;2.33;;;;;;;;;;5016939;28;20402;-84
2023/11/27 07:53:34;;;;;;;5.40;3.73;;;;;;;;;;5016661;28;20833;-85
2023/11/27 07:56:00;;;;;;;5.20;2.03;;;;;;;;;;5016788;28;20745;-85
2023/11/27 07:58:26;;;;;;;5.77;2.97;;;;;;;;;;5016205;28;20425;-84
2023/11/27 08:00:52;;;;;;;4.67;2.80;;;;;;;;;;5016813;28;20417;-87
2023/11/27 08:03:18;;;;;;;4.03;2.73;;;;;;;;;;5016648;28;21032;-86
2023/11/27 08:05:44;;;;;;;3.80;2.90;;;;;;;;;;5016584;28;20503;-86
2023/11/27 08:08:11;;;;;;;4.90;2.90;;;;;;;;;;5016567;28;20437;-87
2023/11/27 08:10:37;;;;;;;5.53;2.87;;;;;;;;;;5016485;28;21044;-86
2023/11/27 08:13:04;;;;;;;3.30;2.60;;;;;;;;;;5009133;28;20413;-83
2023/11/27 08:15:30;;;;;;;5.87;2.70;;;;;;;;;;5005038;28;20417;-84
2023/11/27 08:17:56;;;;;;;6.20;3.80;;;;;;;;;;5019702;28;20469;-84
2023/11/27 08:20:28;;;;;;;5.60;3.20;;;;;;;;;;5001749;28;20514;-82
2023/11/27 08:22:54;;;;;;;6.77;2.97;;;;;;;;;;4998071;28;20480;-85
2023/11/27 08:25:20;;;;;;;6.43;2.47;;;;;;;;;;5014337;28;20426;-82
2023/11/27 08:27:46;;;;;;;5.17;2.40;;;;;;;;;;5007925;28;20435;-82
2023/11/27 08:30:13;;;;;;;5.20;3.03;;;;;;;;;;5004111;28;20462;-84
2023/11/27 08:32:39;;;;;;;5.90;3.77;;;;;;;;;;4995446;28;20473;-86
2023/11/27 08:35:05;;;;;;;4.70;1.70;;;;;;;;;;4996080;28;20770;-86
2023/11/27 08:37:35;;;;;;;4.57;2.47;;;;;;;;;;5023093;28;20969;-84
2023/11/27 08:40:09;;;;;;;5.40;2.73;;;;;;;;;;5011600;28;20406;-83
2023/11/27 08:42:35;;;;;;;6.40;3.40;;;;;;;;;;5004204;28;20836;-83
2023/11/27 08:45:10;;;;;;;10.80;5.30;;;;;;;;;;5015248;28;20440;-80
2023/11/27 08:47:36;;;;;;;4.53;2.43;;;;;;;;;;5015412;28;20401;-82
2023/11/27 08:50:04;;;;;;;5.83;3.00;;;;;;;;;;5015273;28;20917;-82
2023/11/27 08:52:30;;;;;;;15.97;8.63;;;;;;;;;;5015301;28;20435;-82
2023/11/27 08:54:57;;;;;;;27.43;15.77;;;;;;;;;;5015255;28;20912;-82
2023/11/27 08:57:23;;;;;;;17.23;9.40;;;;;;;;;;5005839;28;20426;-84
2023/11/27 08:59:49;;;;;;;7.57;4.40;;;;;;;;;;4995455;28;20442;-84
2023/11/27 09:02:16;;;;;;;11.33;7.30;;;;;;;;;;4995484;28;20467;-86
2023/11/27 09:04:41;;;;;;;13.80;7.03;;;;;;;;;;4995618;28;20771;-85
2023/11/27 09:07:07;;;;;;;7.63;5.30;;;;;;;;;;4995660;28;20423;-86
2023/11/27 09:09:33;;;;;;;6.77;5.40;;;;;;;;;;4993273;28;20423;-85
2023/11/27 09:11:59;;;;;;;7.30;4.17;;;;;;;;;;4995355;28;20423;-85
2023/11/27 09:14:26;;;;;;;9.93;5.73;;;;;;;;;;4964533;28;20794;-84
2023/11/27 09:16:52;;;;;;;16.67;11.20;;;;;;;;;;5015477;28;20413;-87
2023/11/27 09:19:18;;;;;;;12.57;8.03;;;;;;;;;;5015060;28;20410;-86
2023/11/27 09:21:45;;;;;;;10.67;6.30;;;;;;;;;;5017689;28;20425;-84
2023/11/27 09:24:11;;;;;;;9.00;3.70;;;;;;;;;;5031282;28;20523;-87
2023/11/27 09:26:37;;;;;;;6.87;4.07;;;;;;;;;;5012912;28;20587;-88
2023/11/27 09:29:04;;;;;;;4.83;3.20;;;;;;;;;;5008360;28;20913;-84
2023/11/27 09:31:30;;;;;;;11.77;7.43;;;;;;;;;;5018350;28;20472;-85
2023/11/27 09:33:57;;;;;;;6.57;4.10;;;;;;;;;;5024411;28;20413;-81
2023/11/27 09:36:23;;;;;;;5.93;2.83;;;;;;;;;;5022925;28;20493;-85
2023/11/27 09:38:49;;;;;;;7.07;4.13;;;;;;;;;;5023834;28;20417;-85
2023/11/27 09:41:16;;;;;;;5.50;2.67;;;;;;;;;;5022694;28;20887;-83
2023/11/27 09:43:42;;;;;;;5.07;3.00;;;;;;;;;;5024647;28;20478;-80
2023/11/27 09:46:10;;;;;;;5.83;3.20;;;;;;;;;;5024035;28;20413;-84
2023/11/27 09:48:41;;;;;;;4.63;2.03;;;;;;;;;;5025245;28;20508;-85
2023/11/27 09:51:12;;;;;;;8.60;3.13;;;;;;;;;;5015355;28;20418;-84
2023/11/27 09:53:40;;;;;;;5.30;2.30;;;;;;;;;;5023845;28;20416;-84
2023/11/27 09:56:07;;;;;;;8.63;3.33;;;;;;;;;;5025064;28;20399;-87
2023/11/27 09:58:36;;;;;;;7.20;2.93;;;;;;;;;;5023625;28;20414;-80
2023/11/27 10:01:02;;;;;;;5.03;2.13;;;;;;;;;;5021483;28;20497;-84
2023/11/27 10:03:29;;;;;;;17.73;9.60;;;;;;;;;;5024379;28;21146;-84
2023/11/27 10:05:57;;;;;;;6.63;3.93;;;;;;;;;;5024187;28;20418;-85
2023/11/27 10:08:26;;;;;;;4.83;3.33;;;;;;;;;;5022730;28;20421;-82
2023/11/27 10:10:52;;;;;;;5.97;2.70;;;;;;;;;;5025463;28;20453;-81
2023/11/27 10:13:29;;;;;;;4.57;2.27;;;;;;;;;;5019955;28;20506;-84
2023/11/27 10:15:58;;;;;;;5.27;1.63;;;;;;;;;;5024665;28;20399;-83
2023/11/27 10:18:24;;;;;;;2.70;1.30;;;;;;;;;;5021180;28;20953;-85
2023/11/27 10:20:50;;;;;;;5.67;2.10;;;;;;;;;;5024161;28;20895;-83
2023/11/27 10:23:16;;;;;;;4.40;2.30;;;;;;;;;;5023996;28;20463;-82
2023/11/27 10:25:42;;;;;;;3.10;1.80;;;;;;;;;;4979098;28;20774;-84
2023/11/27 10:28:09;;;;;;;4.73;2.27;;;;;;;;;;5023781;28;20424;-84
2023/11/27 10:30:36;;;;;;;3.17;1.40;;;;;;;;;;5024143;28;20445;-85
2023/11/27 10:33:02;;;;;;;4.40;2.00;;;;;;;;;;5021692;28;20435;-85
2023/11/27 10:35:31;;;;;;;3.67;2.33;;;;;;;;;;5022498;28;20400;-85
2023/11/27 10:37:58;;;;;;;3.87;1.67;;;;;;;;;;5022399;28;21038;-84
2023/11/27 10:40:27;;;;;;;4.50;2.77;;;;;;;;;;5020852;28;20505;-84
2023/11/27 10:42:57;;;;;;;5.93;2.80;;;;;;;;;;5021505;28;20825;-85
2023/11/27 10:45:23;;;;;;;3.30;1.63;;;;;;;;;;5024277;28;20414;-85
2023/11/27 10:47:50;;;;;;;4.13;1.23;;;;;;;;;;5021362;28;20433;-85
2023/11/27 10:50:17;;;;;;;4.50;1.97;;;;;;;;;;5024439;28;20925;-84
2023/11/27 10:52:49;;;;;;;4.33;2.57;;;;;;;;;;5016272;28;20428;-82
2023/11/27 10:55:19;;;;;;;3.70;2.00;;;;;;;;;;5022448;28;20411;-85
2023/11/27 10:57:47;;;;;;;3.90;1.80;;;;;;;;;;5021566;28;20433;-83
2023/11/27 11:00:29;;;;;;;4.70;2.37;;;;;;;;;;5025622;28;20416;-85
2023/11/27 11:03:00;;;;;;;7.00;3.83;;;;;;;;;;5020512;28;20463;-84
2023/11/27 11:05:29;;;;;;;6.20;2.27;;;;;;;;;;5021969;28;20521;-84
2023/11/27 11:07:57;;;;;;;2.93;1.80;;;;;;;;;;5024426;28;20406;-83
2023/11/27 11:10:26;;;;;;;4.50;3.37;;;;;;;;;;5019014;28;20971;-85
2023/11/27 11:12:53;;;;;;;4.93;2.80;;;;;;;;;;5022373;28;20804;-86
2023/11/27 11:15:21;;;;;;;3.97;2.60;;;;;;;;;;5017686;28;20484;-85
2023/11/27 11:17:55;;;;;;;3.40;2.23;;;;;;;;;;5013692;28;20451;-84
2023/11/27 11:20:42;;;;;;;4.20;1.80;;;;;;;;;;5025744;28;20431;-87
2023/11/27 11:23:07;;;;;;;3.83;2.30;;;;;;;;;;5037174;28;20988;-85
2023/11/27 11:25:46;;;;;;;5.33;1.90;;;;;;;;;;5024166;28;20416;-83
2023/11/27 11:28:12;;;;;;;3.17;1.57;;;;;;;;;;4998122;28;20802;-81
2023/11/27 11:30:39;;;;;;;4.57;2.30;;;;;;;;;;5005653;28;20467;-86
2023/11/27 11:33:18;;;;;;;3.47;1.57;;;;;;;;;;5021431;28;20422;-81
2023/11/27 11:35:50;;;;;;;3.73;2.27;;;;;;;;;;5020165;28;20409;-81
2023/11/27 11:38:20;;;;;;;2.37;0.73;;;;;;;;;;5021973;28;20417;-81
2023/11/27 11:40:49;;;;;;;4.10;2.17;;;;;;;;;;5023057;28;20745;-81
2023/11/27 11:43:18;;;;;;;4.43;1.93;;;;;;;;;;5019447;28;20529;-81
2023/11/27 11:45:46;;;;;;;3.80;1.33;;;;;;;;;;5023373;28;20413;-81
2023/11/27 11:48:14;;;;;;;4.03;2.03;;;;;;;;;;5022190;28;20405;-83
2023/11/27 11:50:41;;;;;;;4.20;2.40;;;;;;;;;;5021408;28;20495;-83
2023/11/27 11:53:18;;;;;;;2.50;1.97;;;;;;;;;;5017976;28;20403;-81
2023/11/27 11:55:47;;;;;;;3.10;1.40;;;;;;;;;;5020168;28;20412;-88
2023/11/27 11:58:19;;;;;;;5.23;3.30;;;;;;;;;;5025910;28;20459;-86
2023/11/27 12:00:45;;;;;;;5.47;3.30;;;;;;;;;;5024062;28;20418;-86
2023/11/27 12:03:15;;;;;;;5.60;3.63;;;;;;;;;;5017178;28;20470;-88
2023/11/27 12:05:46;;;;;;;3.97;2.33;;;;;;;;;;5016759;28;20842;-88
2023/11/27 12:08:12;;;;;;;3.37;1.87;;;;;;;;;;5023257;28;20414;-86
2023/11/27 12:10:38;;;;;;;6.27;1.67;;;;;;;;;;5028284;28;20418;-84
2023/11/27 12:13:08;;;;;;;4.37;2.30;;;;;;;;;;5026910;28;20761;-86
2023/11/27 12:15:34;;;;;;;5.33;2.37;;;;;;;;;;5024051;28;20789;-84
2023/11/27 12:18:00;;;;;;;3.53;1.67;;;;;;;;;;5024739;28;20420;-85
2023/11/27 12:20:26;;;;;;;3.47;1.80;;;;;;;;;;5024830;28;20417;-85
2023/11/27 12:22:52;;;;;;;3.00;1.60;;;;;;;;;;5025408;28;20474;-82
2023/11/27 12:25:21;;;;;;;3.87;1.63;;;;;;;;;;5026618;28;20790;-84
2023/11/27 12:27:47;;;;;;;3.20;1.90;;;;;;;;;;5017297;28;20469;-83
2023/11/27 12:30:20;;;;;;;3.30;1.93;;;;;;;;;;5021651;28;20476;-83
2023/11/27 12:32:52;;;;;;;2.97;2.13;;;;;;;;;;5026005;28;20424;-85
2023/11/27 12:35:19;;;;;;;2.47;2.10;;;;;;;;;;5024858;28;21100;-83
2023/11/27 12:37:48;;;;;;;4.03;1.70;;;;;;;;;;5022425;28;20430;-84
2023/11/27 12:40:17;;;;;;;4.60;1.73;;;;;;;;;;5017400;28;20448;-86
2023/11/27 12:42:44;;;;;;;2.50;1.40;;;;;;;;;;5021258;28;20471;-84
2023/11/27 12:45:11;;;;;;;1.93;1.13;;;;;;;;;;5024047;28;20433;-84
2023/11/27 12:47:37;;;;;;;7.13;1.23;;;;;;;;;;5025890;28;20404;-85
2023/11/27 12:50:15;;;;;;;3.53;1.60;;;;;;;;;;5021232;28;20435;-84
2023/11/27 12:52:45;;;;;;;1.73;1.00;;;;;;;;;;5024705;28;20419;-85
2023/11/27 12:55:12;;;;;;;2.47;1.10;;;;;;;;;;5022085;28;20424;-84
2023/11/27 12:57:38;;;;;;;3.17;1.37;;;;;;;;;;5020290;28;20417;-84
2023/11/27 13:00:05;;;;;;;4.50;2.00;;;;;;;;;;5015356;28;20462;-84
2023/11/27 13:02:42;;;;;;;2.93;1.83;;;;;;;;;;5019155;28;20483;-85
2023/11/27 13:05:12;;;;;;;3.67;1.80;;;;;;;;;;5014424;28;20775;-84
2023/11/27 13:07:41;;;;;;;3.50;2.20;;;;;;;;;;5015562;28;20422;-84
2023/11/27 13:10:11;;;;;;;3.40;1.90;;;;;;;;;;5016086;28;20832;-83
2023/11/27 13:12:47;;;;;;;5.33;2.57;;;;;;;;;;5018298;28;20488;-84
2023/11/27 13:15:21;;;;;;;3.27;2.20;;;;;;;;;;5015903;28;20517;-84
2023/11/27 13:17:52;;;;;;;3.57;1.43;;;;;;;;;;5013945;28;20413;-82
2023/11/27 13:20:21;;;;;;;3.17;1.37;;;;;;;;;;5006135;28;20425;-83
2023/11/27 13:22:47;;;;;;;4.60;2.00;;;;;;;;;;4995535;28;20820;-83
2023/11/27 13:25:15;;;;;;;3.50;1.50;;;;;;;;;;4995528;28;20461;-84
2023/11/27 13:27:47;;;;;;;4.80;2.13;;;;;;;;;;5010184;28;20437;-84
2023/11/27 13:30:20;;;;;;;3.57;2.83;;;;;;;;;;5008170;28;20523;-87
2023/11/27 13:32:46;;;;;;;3.50;2.57;;;;;;;;;;5018989;28;20412;-86
2023/11/27 13:35:12;;;;;;;4.00;2.70;;;;;;;;;;5024278;28;20424;-85
2023/11/27 13:37:38;;;;;;;4.10;2.77;;;;;;;;;;5023192;28;20443;-88
2023/11/27 13:40:05;;;;;;;4.97;1.57;;;;;;;;;;5023095;28;20420;-88
2023/11/27 13:42:32;;;;;;;5.20;3.47;;;;;;;;;;5019679;28;20453;-83
2023/11/27 13:44:59;;;;;;;4.00;2.40;;;;;;;;;;5013536;28;20463;-84
2023/11/27 13:47:25;;;;;;;5.67;2.60;;;;;;;;;;5021291;28;20423;-83
2023/11/27 13:49:57;;;;;;;4.07;2.10;;;;;;;;;;4971214;28;20474;-84
2023/11/27 13:52:30;;;;;;;8.10;5.18;;;;;;;;;;5013227;28;20419;-85
2023/11/27 13:54:56;;;;;;;5.87;3.93;;;;;;;;;;5014351;28;20246;-85
2023/11/27 13:57:32;;;;;;;6.00;3.90;;;;;;;;;;5012613;28;20417;-84
2023/11/27 13:59:58;;;;;;;5.53;4.10;;;;;;;;;;5014104;28;20775;-83
2023/11/27 14:02:27;;;;;;;6.13;3.80;;;;;;;;;;5013703;28;20958;-84
2023/11/27 14:05:05;;;;;;;6.90;4.10;;;;;;;;;;5023186;28;20446;-85
2023/11/27 14:07:35;;;;;;;10.10;5.00;;;;;;;;;;5033643;28;20742;-85
2023/11/27 14:10:04;;;;;;;7.27;4.60;;;;;;;;;;5005056;28;20432;-84
2023/11/27 14:12:41;;;;;;;7.80;3.93;;;;;;;;;;5002229;28;20451;-84
2023/11/27 14:15:21;;;;;;;6.60;4.67;;;;;;;;;;4999631;28;20587;-84
2023/11/27 14:20:52;;;;;;;5.47;4.23;;;;;;;;;;5013826;28;20999;-85
2023/11/27 14:26:21;;;;;;;6.73;4.20;;;;;;;;;;5002932;28;20453;-86
2023/11/27 14:31:13;;;;;;;7.60;5.60;;;;;;;;;;5013218;28;20870;-86
2023/11/27 14:33:43;;;;;;;7.10;4.90;;;;;;;;;;5005823;28;20477;-86
2023/11/27 14:36:11;;;;;;;9.27;6.20;;;;;;;;;;5007965;28;20909;-83
2023/11/27 14:38:37;;;;;;;7.83;5.40;;;;;;;;;;5013531;28;20414;-79
2023/11/27 14:41:04;;;;;;;8.27;5.83;;;;;;;;;;5011229;28;20895;-91
2023/11/27 14:43:32;;;;;;;7.57;5.17;;;;;;;;;;4997062;28;20484;-84